createdAt,value
2019-03-30T00:01:17.362Z,101313.63
2019-03-30T00:03:48.810Z,101310.78
2019-03-30T00:06:20.130Z,101312.78
2019-03-30T00:08:51.477Z,101309.87
2019-03-30T00:11:22.789Z,101310.48
2019-03-30T00:13:54.169Z,101313.00
2019-03-30T00:16:25.485Z,101306.26
2019-03-30T00:18:56.784Z,101302.09
2019-03-30T00:21:28.077Z,101310.51
2019-03-30T00:24:03.782Z,101304.77
2019-03-30T00:26:36.105Z,101312.86
2019-03-30T00:29:07.439Z,101312.86
2019-03-30T00:31:38.872Z,101313.52
2019-03-30T00:34:10.132Z,101308.31
2019-03-30T00:36:41.554Z,101308.20
2019-03-30T00:39:12.936Z,101308.33
2019-03-30T00:41:44.198Z,101310.43
2019-03-30T00:44:15.603Z,101307.51
2019-03-30T00:46:47.225Z,101310.44
2019-03-30T00:49:18.599Z,101315.81
2019-03-30T00:51:50.019Z,101310.32
2019-03-30T00:54:22.644Z,101307.63
2019-03-30T00:56:53.870Z,101301.84
2019-03-30T00:59:25.117Z,101307.48
2019-03-30T01:01:56.423Z,101304.91
2019-03-30T01:04:27.787Z,101307.89
2019-03-30T01:06:59.106Z,101308.55
2019-03-30T01:09:30.510Z,101310.63
2019-03-30T01:12:01.875Z,101304.66
2019-03-30T01:14:33.283Z,101301.84
2019-03-30T01:17:04.912Z,101297.42
2019-03-30T01:19:36.193Z,101303.09
2019-03-30T01:22:07.504Z,101301.66
2019-03-30T01:24:38.873Z,101300.03
2019-03-30T01:27:10.147Z,101303.23
2019-03-30T01:29:41.469Z,101304.61
2019-03-30T01:32:12.870Z,101299.95
2019-03-30T01:34:44.405Z,101300.91
2019-03-30T01:37:15.723Z,101296.42
2019-03-30T01:39:47.223Z,101296.13
2019-03-30T01:42:18.487Z,101294.75
2019-03-30T01:44:49.973Z,101299.95
2019-03-30T01:47:21.442Z,101293.86
2019-03-30T01:49:54.475Z,101295.05
2019-03-30T01:52:25.738Z,101299.69
2019-03-30T01:54:57.001Z,101294.88
2019-03-30T01:57:28.513Z,101288.67
2019-03-30T02:00:00.785Z,101291.65
2019-03-30T02:02:32.540Z,101286.69
2019-03-30T02:05:04.647Z,101291.58
2019-03-30T02:07:35.994Z,101287.65
2019-03-30T02:10:08.973Z,101286.46
2019-03-30T02:12:40.368Z,101287.71
2019-03-30T02:15:11.953Z,101287.42
2019-03-30T02:17:43.266Z,101282.85
2019-03-30T02:20:30.591Z,101280.70
2019-03-30T02:22:54.916Z,101283.30
2019-03-30T02:25:26.183Z,101276.44
2019-03-30T02:27:57.572Z,101273.96
2019-03-30T02:30:28.919Z,101270.31
2019-03-30T02:33:00.329Z,101273.87
2019-03-30T02:35:31.653Z,101271.13
2019-03-30T02:38:03.230Z,101270.14
2019-03-30T02:40:34.562Z,101271.03
2019-03-30T02:43:06.173Z,101267.52
2019-03-30T02:45:37.527Z,101269.13
2019-03-30T02:48:09.047Z,101266.67
2019-03-30T02:50:49.509Z,101261.95
2019-03-30T02:53:13.519Z,101265.69
2019-03-30T02:55:44.845Z,101265.20
2019-03-30T02:58:16.226Z,101261.06
2019-03-30T03:00:47.614Z,101264.59
2019-03-30T03:03:19.217Z,101260.31
2019-03-30T03:05:50.645Z,101261.01
2019-03-30T03:08:22.318Z,101257.35
2019-03-30T03:10:53.770Z,101257.56
2019-03-30T03:13:25.111Z,101259.42
2019-03-30T03:15:56.376Z,101260.94
2019-03-30T03:18:27.759Z,101261.00
2019-03-30T03:21:07.423Z,101258.66
2019-03-30T03:23:32.154Z,101261.41
2019-03-30T03:26:03.583Z,101254.37
2019-03-30T03:28:35.052Z,101259.73
2019-03-30T03:31:06.382Z,101256.08
2019-03-30T03:33:37.848Z,101259.87
2019-03-30T03:36:09.334Z,101258.95
2019-03-30T03:38:40.686Z,101250.69
2019-03-30T03:41:13.003Z,101255.44
2019-03-30T03:43:44.389Z,101249.42
2019-03-30T03:46:15.729Z,101253.08
2019-03-30T03:48:47.173Z,101256.74
2019-03-30T03:51:26.155Z,101251.70
2019-03-30T03:53:53.863Z,101250.13
2019-03-30T03:56:27.030Z,101256.19
2019-03-30T03:58:58.577Z,101250.66
2019-03-30T04:01:31.767Z,101247.63
2019-03-30T04:04:04.471Z,101247.84
2019-03-30T04:06:39.147Z,101246.39
2019-03-30T04:09:10.527Z,101249.06
2019-03-30T04:11:44.058Z,101252.55
2019-03-30T04:14:18.020Z,101252.33
2019-03-30T04:16:49.386Z,101242.83
2019-03-30T04:19:20.791Z,101249.22
2019-03-30T04:21:52.117Z,101250.23
2019-03-30T04:24:23.377Z,101249.98
2019-03-30T04:26:54.722Z,101255.47
2019-03-30T04:29:26.056Z,101248.70
2019-03-30T04:31:57.376Z,101257.53
2019-03-30T04:34:28.688Z,101250.17
2019-03-30T04:36:59.995Z,101256.63
2019-03-30T04:39:31.380Z,101255.25
2019-03-30T04:42:02.913Z,101252.30
2019-03-30T04:44:34.255Z,101249.76
2019-03-30T04:47:06.131Z,101251.14
2019-03-30T04:49:37.898Z,101248.52
2019-03-30T04:52:11.714Z,101244.26
2019-03-30T04:54:43.206Z,101250.80
2019-03-30T04:57:14.613Z,101246.39
2019-03-30T05:00:14.738Z,101247.63
2019-03-30T05:02:48.533Z,101244.30
2019-03-30T05:05:19.840Z,101248.22
2019-03-30T05:07:51.294Z,101259.09
2019-03-30T05:10:22.593Z,101267.80
2019-03-30T05:12:53.917Z,101272.47
2019-03-30T05:15:25.436Z,101272.10
2019-03-30T05:17:56.832Z,101276.48
2019-03-30T05:20:28.220Z,101270.77
2019-03-30T05:22:59.791Z,101269.81
2019-03-30T05:25:31.128Z,101269.45
2019-03-30T05:28:02.573Z,101268.36
2019-03-30T05:30:33.900Z,101260.28
2019-03-30T05:33:06.992Z,101273.00
2019-03-30T05:35:39.551Z,101277.45
2019-03-30T05:38:10.945Z,101271.73
2019-03-30T05:40:42.228Z,101269.38
2019-03-30T05:43:13.530Z,101280.66
2019-03-30T05:45:44.898Z,101277.23
2019-03-30T05:48:16.199Z,101277.23
2019-03-30T05:50:47.926Z,101280.82
2019-03-30T05:53:19.226Z,101269.45
2019-03-30T05:55:50.700Z,101268.70
2019-03-30T05:58:22.058Z,101266.58
2019-03-30T06:00:53.438Z,101272.62
2019-03-30T06:03:24.909Z,101272.89
2019-03-30T06:06:00.860Z,101269.23
2019-03-30T06:08:32.165Z,101268.41
2019-03-30T06:11:03.427Z,101266.91
2019-03-30T06:13:34.709Z,101271.32
2019-03-30T06:16:06.149Z,101269.22
2019-03-30T06:18:38.515Z,101260.91
2019-03-30T06:21:10.089Z,101268.31
2019-03-30T06:23:41.490Z,101267.02
2019-03-30T06:26:14.553Z,101266.34
2019-03-30T06:28:46.018Z,101258.28
2019-03-30T06:31:17.409Z,101267.20
2019-03-30T06:33:49.771Z,101263.97
2019-03-30T06:36:21.011Z,101263.06
2019-03-30T06:38:52.463Z,101265.83
2019-03-30T06:41:24.894Z,101260.94
2019-03-30T06:43:56.249Z,101258.73
2019-03-30T06:46:31.097Z,101261.49
2019-03-30T06:49:02.539Z,101262.80
2019-03-30T06:51:33.834Z,101260.58
2019-03-30T06:54:08.281Z,101258.39
2019-03-30T06:56:39.519Z,101265.70
2019-03-30T06:59:10.816Z,101267.82
2019-03-30T07:01:42.519Z,101276.56
2019-03-30T07:04:15.541Z,101276.19
2019-03-30T07:06:47.620Z,101276.52
2019-03-30T07:09:21.935Z,101272.06
2019-03-30T07:11:56.262Z,101270.78
2019-03-30T07:14:32.419Z,101268.15
2019-03-30T07:17:05.624Z,101275.50
2019-03-30T07:19:40.331Z,101274.91
2019-03-30T07:22:11.883Z,101281.42
2019-03-30T07:24:43.404Z,101270.81
2019-03-30T07:27:18.338Z,101269.80
2019-03-30T07:29:49.698Z,101269.20
2019-03-30T07:32:21.101Z,101265.53
2019-03-30T07:34:52.476Z,101267.19
2019-03-30T07:37:23.709Z,101273.58
2019-03-30T07:39:55.108Z,101265.26
2019-03-30T07:42:26.586Z,101262.66
2019-03-30T07:44:59.913Z,101262.33
2019-03-30T07:47:32.861Z,101261.45
2019-03-30T07:50:08.926Z,101259.63
2019-03-30T07:52:40.355Z,101264.42
2019-03-30T07:55:11.944Z,101254.84
2019-03-30T07:57:43.392Z,101257.52
2019-03-30T08:00:15.690Z,101258.86
2019-03-30T08:02:46.922Z,101252.73
2019-03-30T08:05:18.308Z,101252.28
2019-03-30T08:07:49.798Z,101250.87
2019-03-30T08:10:21.241Z,101253.60
2019-03-30T08:12:52.700Z,101254.16
2019-03-30T08:15:24.191Z,101251.05
2019-03-30T08:17:55.543Z,101251.45
2019-03-30T08:20:28.351Z,101263.25
2019-03-30T08:22:59.589Z,101258.41
2019-03-30T08:25:31.053Z,101257.50
2019-03-30T08:28:02.493Z,101257.41
2019-03-30T08:30:33.810Z,101257.77
2019-03-30T08:33:05.113Z,101265.67
2019-03-30T08:35:36.425Z,101268.63
2019-03-30T08:38:07.669Z,101264.19
2019-03-30T08:40:38.916Z,101256.17
2019-03-30T08:43:10.299Z,101256.11
2019-03-30T08:45:41.589Z,101250.67
2019-03-30T08:48:13.035Z,101254.63
2019-03-30T08:50:44.558Z,101253.31
2019-03-30T08:53:17.622Z,101251.52
2019-03-30T08:55:51.011Z,101250.92
2019-03-30T08:58:22.609Z,101240.64
2019-03-30T09:00:53.859Z,101243.11
2019-03-30T09:03:25.125Z,101242.83
2019-03-30T09:05:57.001Z,101240.80
2019-03-30T09:08:28.317Z,101236.16
2019-03-30T09:10:59.863Z,101232.55
2019-03-30T09:13:31.604Z,101230.13
2019-03-30T09:16:03.072Z,101235.62
2019-03-30T09:18:34.368Z,101232.12
2019-03-30T09:21:06.107Z,101230.16
2019-03-30T09:23:37.493Z,101220.55
2019-03-30T09:26:08.892Z,101224.38
2019-03-30T09:28:40.856Z,101220.52
2019-03-30T09:31:12.219Z,101222.05
2019-03-30T09:33:43.691Z,101215.27
2019-03-30T09:36:15.156Z,101213.72
2019-03-30T09:38:47.682Z,101213.44
2019-03-30T09:41:19.083Z,101215.86
2019-03-30T09:43:50.533Z,101209.83
2019-03-30T09:46:21.800Z,101205.54
2019-03-30T09:48:53.037Z,101193.68
2019-03-30T09:51:24.491Z,101194.67
2019-03-30T09:53:55.959Z,101191.30
2019-03-30T09:56:27.224Z,101197.97
2019-03-30T09:58:58.626Z,101194.47
2019-03-30T10:01:30.107Z,101193.66
2019-03-30T10:04:02.471Z,101193.75
2019-03-30T10:06:34.814Z,101187.14
2019-03-30T10:09:07.529Z,101181.89
2019-03-30T10:11:38.859Z,101176.12
2019-03-30T10:14:10.366Z,101177.45
2019-03-30T10:16:43.709Z,101173.89
2019-03-30T10:19:14.962Z,101168.09
2019-03-30T10:21:46.467Z,101166.32
2019-03-30T10:24:17.930Z,101165.38
2019-03-30T10:26:49.324Z,101165.30
2019-03-30T10:29:20.718Z,101159.02
2019-03-30T10:31:51.967Z,101162.11
2019-03-30T10:34:24.467Z,101158.47
2019-03-30T10:36:55.792Z,101156.19
2019-03-30T10:39:27.066Z,101153.88
2019-03-30T10:41:58.383Z,101151.22
2019-03-30T10:44:29.673Z,101146.23
2019-03-30T10:47:01.120Z,101143.31
2019-03-30T10:49:32.518Z,101133.31
2019-03-30T10:52:03.957Z,101130.39
2019-03-30T10:54:35.359Z,101126.78
2019-03-30T10:57:10.126Z,101126.21
2019-03-30T10:59:47.504Z,101125.65
2019-03-30T11:02:19.053Z,101117.55
2019-03-30T11:04:50.286Z,101114.65
2019-03-30T11:07:23.554Z,101111.67
2019-03-30T11:09:55.324Z,101105.02
2019-03-30T11:12:28.215Z,101095.42
2019-03-30T11:14:59.885Z,101098.38
2019-03-30T11:17:31.210Z,101095.44
2019-03-30T11:20:02.608Z,101095.53
2019-03-30T11:22:33.973Z,101085.57
2019-03-30T11:25:08.502Z,101086.34
2019-03-30T11:27:40.019Z,101082.08
2019-03-30T11:30:11.413Z,101082.51
2019-03-30T11:32:42.786Z,101073.30
2019-03-30T11:35:14.047Z,101071.55
2019-03-30T11:37:45.387Z,101067.38
2019-03-30T11:40:22.581Z,101069.52
2019-03-30T11:42:55.924Z,101058.22
2019-03-30T11:45:27.306Z,101054.66
2019-03-30T11:47:58.873Z,101048.50
2019-03-30T11:50:30.194Z,101049.38
2019-03-30T11:53:01.624Z,101039.56
2019-03-30T11:55:32.942Z,101043.56
2019-03-30T11:58:04.307Z,101037.80
2019-03-30T12:00:35.649Z,101037.61
2019-03-30T12:03:08.740Z,101026.97
2019-03-30T12:05:42.113Z,101023.85
2019-03-30T12:08:13.517Z,101019.27
2019-03-30T12:10:50.995Z,101019.45
2019-03-30T12:13:22.651Z,101016.05
2019-03-30T12:15:53.966Z,101013.98
2019-03-30T12:18:25.456Z,101013.23
2019-03-30T12:20:56.803Z,101008.03
2019-03-30T12:23:28.321Z,101001.02
2019-03-30T12:25:59.566Z,100996.41
2019-03-30T12:28:32.579Z,100998.48
2019-03-30T12:31:03.901Z,100989.34
2019-03-30T12:33:35.197Z,100980.73
2019-03-30T12:36:06.583Z,100977.78
2019-03-30T12:38:38.036Z,100968.55
2019-03-30T12:41:09.413Z,100973.68
2019-03-30T12:43:40.726Z,100961.80
2019-03-30T12:46:12.091Z,100958.38
2019-03-30T12:48:43.578Z,100954.38
2019-03-30T12:51:14.950Z,100954.59
2019-03-30T12:53:50.402Z,100952.05
2019-03-30T12:56:20.913Z,100942.59
2019-03-30T12:58:52.158Z,100942.88
2019-03-30T13:01:23.635Z,100932.36
2019-03-30T13:03:55.973Z,100933.75
2019-03-30T13:06:27.283Z,100932.63
2019-03-30T13:08:58.638Z,100933.80
2019-03-30T13:11:29.966Z,100925.23
2019-03-30T13:14:01.422Z,100922.34
2019-03-30T13:16:32.943Z,100916.42
2019-03-30T13:19:04.328Z,100916.26
2019-03-30T13:21:35.630Z,100907.73
2019-03-30T13:24:07.097Z,100911.60
2019-03-30T13:26:38.494Z,100907.20
2019-03-30T13:29:09.868Z,100901.31
2019-03-30T13:31:42.093Z,100890.92
2019-03-30T13:34:19.473Z,100889.89
2019-03-30T13:36:50.957Z,100889.48
2019-03-30T13:39:22.310Z,100886.95
2019-03-30T13:41:53.698Z,100882.53
2019-03-30T13:44:34.209Z,100876.23
2019-03-30T13:47:05.652Z,100876.00
2019-03-30T13:49:38.039Z,100875.47
2019-03-30T13:52:11.358Z,100865.95
2019-03-30T13:54:42.801Z,100872.98
2019-03-30T13:57:15.068Z,100868.11
2019-03-30T13:59:52.994Z,100867.94
2019-03-30T14:02:28.521Z,100856.48
2019-03-30T14:05:00.006Z,100865.31
2019-03-30T14:07:32.913Z,100859.28
2019-03-30T14:10:08.824Z,100854.17
2019-03-30T14:12:40.290Z,100854.76
2019-03-30T14:22:43.970Z,100847.01
2019-03-30T14:25:22.099Z,100834.75
2019-03-30T14:27:53.502Z,100837.92
2019-03-30T14:30:25.105Z,100843.56
2019-03-30T14:32:56.628Z,100839.28
2019-03-30T14:35:29.700Z,100833.05
2019-03-30T14:38:29.416Z,100826.69
2019-03-30T14:41:04.000Z,100824.82
2019-03-30T14:43:35.565Z,100830.36
2019-03-30T14:46:09.591Z,100820.11
2019-03-30T14:48:40.513Z,100818.42
2019-03-30T14:51:15.899Z,100814.17
2019-03-30T14:53:47.876Z,100817.27
2019-03-30T14:56:19.119Z,100804.75
2019-03-30T14:58:50.594Z,100803.42
2019-03-30T15:01:25.297Z,100805.06
2019-03-30T15:03:57.002Z,100803.09
2019-03-30T15:06:29.567Z,100798.52
2019-03-30T15:09:05.175Z,100802.91
2019-03-30T15:11:38.085Z,100795.02
2019-03-30T15:14:12.426Z,100796.00
2019-03-30T15:16:43.739Z,100792.23
2019-03-30T15:19:15.050Z,100794.95
2019-03-30T15:21:46.391Z,100788.16
2019-03-30T15:24:17.753Z,100784.62
2019-03-30T15:26:59.697Z,100780.12
2019-03-30T15:29:25.357Z,100778.17
2019-03-30T15:31:56.755Z,100775.36
2019-03-30T15:34:28.036Z,100775.88
2019-03-30T15:36:59.357Z,100770.20
2019-03-30T15:39:37.197Z,100765.02
2019-03-30T15:42:08.601Z,100757.77
2019-03-30T15:44:40.784Z,100759.58
2019-03-30T15:47:12.315Z,100755.26
2019-03-30T15:49:43.948Z,100759.25
2019-03-30T15:52:15.584Z,100763.19
2019-03-30T15:54:48.949Z,100753.11
2019-03-30T15:57:20.319Z,100755.09
2019-03-30T15:59:53.268Z,100752.47
2019-03-30T16:02:25.622Z,100748.72
2019-03-30T16:04:56.980Z,100751.52
2019-03-30T16:07:29.298Z,100748.38
2019-03-30T16:10:03.986Z,100746.06
2019-03-30T16:12:35.483Z,100745.75
2019-03-30T16:15:07.859Z,100742.09
2019-03-30T16:17:40.930Z,100748.30
2019-03-30T16:20:13.235Z,100744.56
2019-03-30T16:22:46.185Z,100741.40
2019-03-30T16:25:21.256Z,100740.34
2019-03-30T16:27:52.493Z,100746.25
2019-03-30T16:30:27.136Z,100749.58
2019-03-30T16:32:58.466Z,100752.00
2019-03-30T16:35:31.123Z,100750.23
2019-03-30T16:38:02.605Z,100747.08
2019-03-30T16:40:34.267Z,100741.98
2019-03-30T16:43:08.688Z,100745.59
2019-03-30T16:45:40.285Z,100751.70
2019-03-30T16:48:14.628Z,100741.73
2019-03-30T16:50:46.653Z,100744.03
2019-03-30T16:53:18.137Z,100748.42
2019-03-30T16:55:49.684Z,100734.81
2019-03-30T16:58:21.037Z,100739.34
2019-03-30T17:00:56.790Z,100740.45
2019-03-30T17:03:25.746Z,100741.33
2019-03-30T17:06:01.220Z,100744.91
2019-03-30T17:08:32.499Z,100742.56
2019-03-30T17:11:04.032Z,100744.88
2019-03-30T17:13:35.264Z,100744.52
2019-03-30T17:16:07.485Z,100747.93
2019-03-30T17:18:39.083Z,100743.31
2019-03-30T17:21:10.538Z,100738.89
2019-03-30T17:23:41.879Z,100735.61
2019-03-30T17:26:16.980Z,100738.70
2019-03-30T17:28:48.440Z,100734.59
2019-03-30T17:31:24.180Z,100738.27
2019-03-30T17:33:55.433Z,100740.11
2019-03-30T17:36:29.350Z,100739.48
2019-03-30T17:39:04.026Z,100739.91
2019-03-30T17:41:38.126Z,100743.43
2019-03-30T17:44:09.702Z,100740.36
2019-03-30T17:47:01.629Z,100739.29
2019-03-30T17:49:32.063Z,100738.06
2019-03-30T17:52:12.575Z,100737.42
2019-03-30T17:58:30.058Z,100747.71
2019-03-30T18:01:01.659Z,100735.74
2019-03-30T18:03:33.131Z,100741.63
2019-03-30T18:06:10.005Z,100745.29
2019-03-30T18:08:49.605Z,100753.89
2019-03-30T18:11:36.781Z,100756.19
2019-03-30T18:14:08.015Z,100759.20
2019-03-30T18:16:41.037Z,100754.09
2019-03-30T18:22:34.368Z,100766.91
2019-03-30T18:25:17.499Z,100759.25
2019-03-30T18:27:55.639Z,100759.88
2019-03-30T18:30:40.908Z,100767.13
2019-03-30T18:33:12.296Z,100769.14
2019-03-30T18:35:45.386Z,100771.27
2019-03-30T18:38:17.596Z,100772.36
2019-03-30T18:40:57.242Z,100782.25
2019-03-30T18:43:42.510Z,100781.59
2019-03-30T18:46:21.540Z,100780.34
2019-03-30T18:48:53.003Z,100787.98
2019-03-30T18:51:28.264Z,100789.52
2019-03-30T18:54:02.299Z,100791.88
2019-03-30T18:56:33.700Z,100790.26
2019-03-30T18:59:05.104Z,100794.33
2019-03-30T19:01:44.239Z,100799.24
2019-03-30T19:04:16.076Z,100797.98
2019-03-30T19:06:52.506Z,100804.67
2019-03-30T19:09:24.030Z,100796.77
2019-03-30T19:11:55.461Z,100800.36
2019-03-30T19:14:27.055Z,100800.39
2019-03-30T19:16:58.459Z,100802.66
2019-03-30T19:19:34.889Z,100793.84
2019-03-30T19:22:06.212Z,100802.73
2019-03-30T19:24:37.622Z,100802.30
2019-03-30T19:27:09.019Z,100807.59
2019-03-30T19:29:40.680Z,100802.72
2019-03-30T19:32:12.283Z,100800.50
2019-03-30T19:34:43.809Z,100812.47
2019-03-30T19:37:15.209Z,100805.82
2019-03-30T19:39:49.350Z,100808.01
2019-03-30T19:42:20.968Z,100815.09
2019-03-30T19:44:54.031Z,100812.87
2019-03-30T19:47:25.766Z,100814.65
2019-03-30T19:49:57.286Z,100808.88
2019-03-30T19:52:39.722Z,100812.41
2019-03-30T19:55:02.158Z,100810.16
2019-03-30T19:57:35.429Z,100810.59
2019-03-30T20:00:12.784Z,100810.11
2019-03-30T20:02:44.563Z,100813.13
2019-03-30T20:05:16.860Z,100815.13
2019-03-30T20:07:48.408Z,100815.48
2019-03-30T20:10:20.208Z,100814.07
2019-03-30T20:12:51.498Z,100815.70
2019-03-30T20:15:22.963Z,100818.22
2019-03-30T20:17:54.366Z,100816.36
2019-03-30T20:20:25.965Z,100817.61
2019-03-30T20:22:57.341Z,100815.40
2019-03-30T20:25:28.733Z,100810.49
2019-03-30T20:27:59.997Z,100813.52
2019-03-30T20:30:31.484Z,100817.38
2019-03-30T20:33:02.749Z,100813.81
2019-03-30T20:35:36.152Z,100814.28
2019-03-30T20:38:07.544Z,100819.89
2019-03-30T20:40:40.174Z,100811.84
2019-03-30T20:43:12.500Z,100817.05
2019-03-30T20:45:43.899Z,100819.55
2019-03-30T20:48:15.221Z,100811.56
2019-03-30T20:50:46.675Z,100817.30
2019-03-30T20:53:18.006Z,100819.36
2019-03-30T20:55:49.384Z,100817.38
2019-03-30T20:58:20.711Z,100816.86
2019-03-30T21:00:52.171Z,100811.92
2019-03-30T21:03:23.837Z,100811.78
2019-03-30T21:05:55.601Z,100815.75
2019-03-30T21:08:26.861Z,100813.97
2019-03-30T21:10:58.305Z,100812.39
2019-03-30T21:13:29.686Z,100818.02
2019-03-30T21:16:01.215Z,100808.22
2019-03-30T21:18:32.534Z,100815.41
2019-03-30T21:21:03.900Z,100809.64
2019-03-30T21:23:35.763Z,100806.92
2019-03-30T21:26:08.222Z,100812.87
2019-03-30T21:28:39.635Z,100806.42
2019-03-30T21:31:11.024Z,100807.91
2019-03-30T21:33:42.348Z,100806.44
2019-03-30T21:36:13.712Z,100799.35
2019-03-30T21:38:44.972Z,100809.16
2019-03-30T21:41:16.274Z,100805.50
2019-03-30T21:43:47.640Z,100811.60
2019-03-30T21:46:19.210Z,100810.83
2019-03-30T21:48:54.493Z,100812.05
2019-03-30T21:51:28.628Z,100815.93
2019-03-30T21:53:59.863Z,100815.77
2019-03-30T21:56:31.307Z,100816.63
2019-03-30T21:59:02.745Z,100813.58
2019-03-30T22:01:34.182Z,100807.91
2019-03-30T22:04:06.487Z,100812.64
2019-03-30T22:06:38.318Z,100809.52
2019-03-30T22:09:10.271Z,100812.91
2019-03-30T22:11:41.706Z,100816.00
2019-03-30T22:14:13.510Z,100815.44
2019-03-30T22:16:44.882Z,100815.63
2019-03-30T22:19:16.225Z,100810.78
2019-03-30T22:21:47.505Z,100810.41
2019-03-30T22:24:18.888Z,100820.85
2019-03-30T22:26:50.253Z,100812.20
2019-03-30T22:29:22.746Z,100811.31
2019-03-30T22:31:55.060Z,100806.92
2019-03-30T22:34:28.366Z,100811.34
2019-03-30T22:36:59.752Z,100806.03
2019-03-30T22:39:31.015Z,100805.42
2019-03-30T22:42:02.313Z,100811.37
2019-03-30T22:44:33.602Z,100805.80
2019-03-30T22:47:05.651Z,100813.19
2019-03-30T22:49:37.975Z,100812.11
2019-03-30T22:52:10.936Z,100810.25
2019-03-30T22:54:42.226Z,100817.34
2019-03-30T22:57:13.658Z,100816.52
2019-03-30T22:59:45.053Z,100809.30
2019-03-30T23:02:16.533Z,100811.97
2019-03-30T23:04:47.912Z,100811.48
2019-03-30T23:07:19.342Z,100811.20
2019-03-30T23:09:50.627Z,100808.92
2019-03-30T23:12:21.954Z,100813.05
2019-03-30T23:14:54.784Z,100811.59
2019-03-30T23:17:26.337Z,100817.98
2019-03-30T23:19:57.762Z,100809.79
2019-03-30T23:22:30.593Z,100803.84
2019-03-30T23:25:01.838Z,100809.78
2019-03-30T23:27:33.467Z,100810.84
2019-03-30T23:30:07.682Z,100803.05
2019-03-30T23:32:39.268Z,100803.41
2019-03-30T23:35:10.840Z,100804.69
2019-03-30T23:37:43.800Z,100803.76
2019-03-30T23:40:15.253Z,100809.48
2019-03-30T23:42:46.682Z,100803.52
2019-03-30T23:45:18.150Z,100804.67
2019-03-30T23:47:49.699Z,100803.78
2019-03-30T23:50:20.931Z,100803.23
2019-03-30T23:52:52.354Z,100801.38
2019-03-30T23:55:23.609Z,100805.29
2019-03-30T23:57:54.971Z,100802.59
